createdAt,value
2023-04-24T00:01:44.057Z,11.74
2023-04-24T00:04:12.195Z,11.73
2023-04-24T00:06:39.933Z,11.64
2023-04-24T00:09:07.366Z,11.59
2023-04-24T00:11:34.951Z,11.61
2023-04-24T00:14:02.537Z,11.75
2023-04-24T00:16:30.185Z,11.81
2023-04-24T00:18:57.728Z,11.74
2023-04-24T00:21:26.785Z,11.69
2023-04-24T00:23:54.588Z,11.74
2023-04-24T00:26:22.075Z,11.70
2023-04-24T00:28:49.701Z,11.80
2023-04-24T00:31:17.289Z,11.83
2023-04-24T00:33:44.741Z,11.90
2023-04-24T00:36:12.216Z,11.97
2023-04-24T00:38:39.654Z,11.98
2023-04-24T00:41:07.711Z,12.03
2023-04-24T00:43:36.118Z,12.06
2023-04-24T00:46:03.695Z,12.03
2023-04-24T00:48:32.764Z,12.00
2023-04-24T00:51:00.464Z,11.94
2023-04-24T00:53:28.066Z,11.92
2023-04-24T00:55:55.737Z,11.91
2023-04-24T00:58:24.059Z,11.88
2023-04-24T01:00:54.311Z,11.91
2023-04-24T01:03:23.968Z,11.94
2023-04-24T01:05:52.400Z,11.96
2023-04-24T01:08:21.214Z,11.91
2023-04-24T01:10:49.796Z,11.98
2023-04-24T01:13:20.964Z,12.01
2023-04-24T01:15:48.819Z,11.97
2023-04-24T01:18:16.666Z,12.10
2023-04-24T01:20:46.180Z,12.00
2023-04-24T01:23:13.731Z,12.01
2023-04-24T01:25:41.524Z,11.98
2023-04-24T01:28:09.207Z,11.97
2023-04-24T01:30:37.435Z,12.04
2023-04-24T01:33:05.228Z,12.08
2023-04-24T01:35:33.239Z,12.04
2023-04-24T01:38:00.969Z,12.12
2023-04-24T01:40:28.368Z,12.19
2023-04-24T01:42:59.563Z,12.26
2023-04-24T01:45:27.244Z,12.27
2023-04-24T01:47:54.799Z,12.34
2023-04-24T01:50:22.394Z,12.28
2023-04-24T01:52:49.888Z,12.27
2023-04-24T01:55:17.951Z,12.28
2023-04-24T01:57:46.965Z,12.34
2023-04-24T02:00:14.665Z,12.35
2023-04-24T02:02:44.253Z,12.32
2023-04-24T02:05:13.368Z,12.30
2023-04-24T02:07:41.044Z,12.32
2023-04-24T02:10:10.553Z,12.35
2023-04-24T02:12:43.453Z,12.31
2023-04-24T02:15:11.605Z,12.29
2023-04-24T02:17:39.532Z,12.34
2023-04-24T02:20:08.778Z,12.30
2023-04-24T02:22:36.290Z,12.28
2023-04-24T02:25:04.083Z,12.20
2023-04-24T02:27:31.553Z,12.20
2023-04-24T02:29:59.027Z,12.19
2023-04-24T02:32:26.485Z,12.18
2023-04-24T02:34:54.130Z,12.12
2023-04-24T02:37:21.854Z,12.18
2023-04-24T02:39:49.360Z,12.21
2023-04-24T02:42:16.971Z,12.21
2023-04-24T02:44:44.489Z,12.19
2023-04-24T02:47:12.058Z,12.19
2023-04-24T02:49:39.579Z,12.20
2023-04-24T02:52:07.073Z,12.18
2023-04-24T02:54:34.591Z,12.15
2023-04-24T02:57:02.386Z,12.10
2023-04-24T02:59:30.951Z,12.08
2023-04-24T03:01:58.571Z,12.05
2023-04-24T03:04:26.734Z,12.02
2023-04-24T03:06:55.875Z,11.99
2023-04-24T03:09:23.401Z,11.97
2023-04-24T03:11:51.249Z,12.00
2023-04-24T03:14:18.805Z,11.93
2023-04-24T03:16:46.494Z,11.98
2023-04-24T03:19:14.172Z,11.99
2023-04-24T03:22:04.791Z,11.93
2023-04-24T03:24:33.445Z,11.92
2023-04-24T03:27:01.348Z,11.94
2023-04-24T03:29:56.630Z,11.91
2023-04-24T03:32:31.529Z,11.90
2023-04-24T03:34:59.265Z,11.91
2023-04-24T03:37:27.551Z,11.93
2023-04-24T03:40:08.231Z,11.98
2023-04-24T03:42:39.237Z,12.00
2023-04-24T03:45:08.142Z,11.99
2023-04-24T03:47:37.968Z,11.97
2023-04-24T03:50:07.232Z,11.90
2023-04-24T03:52:35.182Z,11.81
2023-04-24T03:55:03.996Z,11.82
2023-04-24T03:57:36.940Z,11.88
2023-04-24T04:00:14.139Z,11.86
2023-04-24T04:02:49.815Z,11.81
2023-04-24T04:05:17.508Z,11.76
2023-04-24T04:07:44.977Z,11.76
2023-04-24T04:10:13.117Z,11.82
2023-04-24T04:12:40.630Z,11.81
2023-04-24T04:15:08.816Z,11.86
2023-04-24T04:17:36.688Z,11.95
2023-04-24T04:20:11.140Z,12.00
2023-04-24T04:22:43.434Z,12.09
2023-04-24T04:25:14.723Z,12.13
2023-04-24T04:27:43.478Z,12.13
2023-04-24T04:30:13.609Z,12.22
2023-04-24T04:32:53.644Z,12.25
2023-04-24T04:35:23.195Z,12.24
2023-04-24T04:37:52.678Z,12.25
2023-04-24T04:40:38.865Z,12.25
2023-04-24T04:43:08.098Z,12.27
2023-04-24T04:45:44.485Z,12.27
2023-04-24T04:48:23.738Z,12.24
2023-04-24T04:50:52.106Z,12.24
2023-04-24T04:53:21.650Z,12.23
2023-04-24T04:55:49.241Z,12.26
2023-04-24T04:58:17.921Z,12.26
2023-04-24T05:00:47.394Z,12.30
2023-04-24T05:03:28.716Z,12.33
2023-04-24T05:06:01.942Z,12.36
2023-04-24T05:08:32.759Z,12.50
2023-04-24T05:11:00.963Z,12.69
2023-04-24T05:13:39.126Z,12.72
2023-04-24T05:16:19.678Z,12.84
2023-04-24T05:18:48.582Z,13.04
2023-04-24T05:21:19.745Z,13.15
2023-04-24T05:23:51.301Z,13.25
2023-04-24T05:26:28.252Z,13.35
2023-04-24T05:28:56.966Z,13.42
2023-04-24T05:31:24.520Z,13.36
2023-04-24T05:33:52.548Z,13.42
2023-04-24T05:36:20.024Z,13.48
2023-04-24T05:38:47.600Z,13.42
2023-04-24T05:41:16.312Z,13.33
2023-04-24T05:43:43.808Z,13.31
2023-04-24T05:46:13.105Z,13.28
2023-04-24T05:48:40.647Z,13.28
2023-04-24T05:51:08.045Z,13.29
2023-04-24T05:53:35.642Z,13.31
2023-04-24T05:56:03.342Z,13.31
2023-04-24T05:58:32.132Z,13.27
2023-04-24T06:01:03.009Z,13.37
2023-04-24T06:03:30.734Z,13.32
2023-04-24T06:05:58.312Z,13.39
2023-04-24T06:08:26.713Z,13.47
2023-04-24T06:10:54.195Z,13.46
2023-04-24T06:13:23.064Z,13.64
2023-04-24T06:16:19.758Z,13.76
2023-04-24T06:18:54.492Z,13.89
2023-04-24T06:21:22.263Z,13.98
2023-04-24T06:23:50.787Z,14.21
2023-04-24T06:26:18.291Z,14.37
2023-04-24T06:28:45.831Z,14.32
2023-04-24T06:31:13.324Z,14.49
2023-04-24T06:33:41.322Z,14.42
2023-04-24T06:36:10.792Z,14.28
2023-04-24T06:38:38.423Z,14.31
2023-04-24T06:41:06.373Z,14.36
2023-04-24T06:43:34.272Z,14.45
2023-04-24T06:46:01.747Z,14.42
2023-04-24T06:48:29.193Z,14.59
2023-04-24T06:50:56.660Z,14.60
2023-04-24T06:53:24.152Z,14.74
2023-04-24T06:55:51.651Z,14.82
2023-04-24T06:58:19.161Z,14.95
2023-04-24T07:00:46.813Z,14.97
2023-04-24T07:03:14.489Z,15.10
2023-04-24T07:05:42.781Z,15.16
2023-04-24T07:08:12.536Z,15.18
2023-04-24T07:10:40.308Z,15.31
2023-04-24T07:13:08.258Z,15.23
2023-04-24T07:15:35.929Z,15.27
2023-04-24T07:18:05.613Z,15.34
2023-04-24T07:20:34.514Z,15.41
2023-04-24T07:23:02.309Z,15.49
2023-04-24T07:25:29.834Z,15.60
2023-04-24T07:27:57.293Z,15.51
2023-04-24T07:30:24.862Z,15.45
2023-04-24T07:32:52.670Z,15.39
2023-04-24T07:35:21.106Z,15.29
2023-04-24T07:37:49.109Z,15.35
2023-04-24T07:40:18.069Z,15.24
2023-04-24T07:42:45.720Z,15.25
2023-04-24T07:45:13.166Z,15.26
2023-04-24T07:47:41.044Z,15.34
2023-04-24T07:50:08.856Z,15.30
2023-04-24T07:52:36.311Z,15.41
2023-04-24T07:55:04.419Z,15.51
2023-04-24T07:57:31.927Z,15.62
2023-04-24T07:59:59.404Z,15.76
2023-04-24T08:02:28.208Z,15.86
2023-04-24T08:04:56.995Z,15.79
2023-04-24T08:07:25.765Z,15.80
2023-04-24T08:09:53.224Z,16.02
2023-04-24T08:12:20.782Z,16.12
2023-04-24T08:14:48.307Z,16.29
2023-04-24T08:17:15.897Z,16.38
2023-04-24T08:19:48.689Z,16.37
2023-04-24T08:22:16.711Z,16.37
2023-04-24T08:24:44.975Z,16.34
2023-04-24T08:27:12.491Z,16.15
2023-04-24T08:29:39.972Z,16.20
2023-04-24T08:32:07.879Z,16.10
2023-04-24T08:34:35.646Z,16.11
2023-04-24T08:37:04.291Z,16.18
2023-04-24T08:39:32.109Z,16.19
2023-04-24T08:42:06.510Z,16.27
2023-04-24T08:44:34.493Z,16.33
2023-04-24T08:47:03.671Z,16.43
2023-04-24T08:49:31.736Z,16.62
2023-04-24T08:52:00.909Z,16.77
2023-04-24T08:54:29.925Z,16.90
2023-04-24T08:57:07.705Z,17.07
2023-04-24T08:59:36.504Z,17.19
2023-04-24T09:02:05.814Z,17.13
2023-04-24T09:04:35.030Z,16.99
2023-04-24T09:07:04.470Z,16.95
2023-04-24T09:09:33.859Z,16.74
2023-04-24T09:12:01.717Z,16.48
2023-04-24T09:14:32.367Z,16.45
2023-04-24T09:16:59.977Z,16.31
2023-04-24T09:19:27.511Z,15.91
2023-04-24T09:21:55.462Z,15.77
2023-04-24T09:24:26.124Z,16.01
2023-04-24T09:27:00.158Z,16.31
2023-04-24T09:29:28.291Z,16.67
2023-04-24T09:31:55.973Z,17.12
2023-04-24T09:34:25.170Z,17.28
2023-04-24T09:36:53.401Z,17.32
2023-04-24T09:39:21.431Z,17.42
2023-04-24T09:41:58.947Z,17.44
2023-04-24T09:44:28.760Z,17.44
2023-04-24T09:47:01.757Z,17.27
2023-04-24T09:49:31.107Z,16.99
2023-04-24T09:52:12.113Z,17.19
2023-04-24T09:54:41.630Z,17.24
2023-04-24T09:57:10.366Z,17.14
2023-04-24T09:59:44.245Z,17.24
2023-04-24T10:02:20.814Z,17.26
2023-04-24T10:05:00.882Z,17.42
2023-04-24T10:07:28.930Z,17.50
2023-04-24T10:09:56.783Z,17.46
2023-04-24T10:12:26.138Z,17.36
2023-04-24T10:14:54.395Z,17.36
2023-04-24T10:17:22.954Z,17.30
2023-04-24T10:19:50.692Z,17.47
2023-04-24T10:22:18.987Z,17.65
2023-04-24T10:24:48.551Z,18.01
2023-04-24T10:27:16.733Z,17.94
2023-04-24T10:29:45.603Z,18.28
2023-04-24T10:32:13.139Z,18.58
2023-04-24T10:34:40.832Z,18.63
2023-04-24T10:37:08.429Z,18.83
2023-04-24T10:39:36.519Z,18.93
2023-04-24T10:42:16.492Z,19.23
2023-04-24T10:44:44.183Z,19.59
2023-04-24T10:47:15.602Z,19.23
2023-04-24T10:49:43.859Z,18.75
2023-04-24T10:52:11.973Z,18.63
2023-04-24T10:54:45.933Z,18.79
2023-04-24T10:57:19.576Z,18.74
2023-04-24T10:59:48.647Z,18.61
2023-04-24T11:02:17.689Z,18.61
2023-04-24T11:04:46.373Z,18.46
2023-04-24T11:07:14.150Z,18.22
2023-04-24T11:09:44.266Z,18.09
2023-04-24T11:12:13.950Z,17.79
2023-04-24T11:15:02.564Z,17.59
2023-04-24T11:17:39.316Z,17.42
2023-04-24T11:20:26.101Z,17.49
2023-04-24T11:22:56.313Z,17.35
2023-04-24T11:25:24.613Z,17.29
2023-04-24T11:28:04.920Z,17.32
2023-04-24T11:30:34.826Z,17.32
2023-04-24T11:33:07.171Z,17.53
2023-04-24T11:35:42.219Z,17.73
2023-04-24T11:40:42.920Z,17.56
2023-04-24T11:43:12.245Z,17.37
2023-04-24T11:45:48.915Z,17.28
2023-04-24T11:48:22.554Z,17.54
2023-04-24T11:50:52.205Z,17.61
2023-04-24T11:53:22.655Z,17.37
2023-04-24T11:55:50.437Z,17.28
2023-04-24T11:58:22.999Z,17.39
2023-04-24T12:00:58.737Z,17.31
2023-04-24T12:03:26.999Z,17.25
2023-04-24T12:06:06.678Z,17.14
2023-04-24T12:08:37.202Z,17.09
2023-04-24T12:11:08.361Z,17.00
2023-04-24T12:13:36.787Z,16.85
2023-04-24T12:16:05.938Z,16.46
2023-04-24T12:18:33.538Z,16.96
2023-04-24T12:21:19.570Z,17.43
2023-04-24T12:23:49.670Z,17.87
2023-04-24T12:26:21.104Z,18.38
2023-04-24T12:28:50.883Z,18.54
2023-04-24T12:31:18.594Z,18.71
2023-04-24T12:33:46.200Z,18.53
2023-04-24T12:36:14.021Z,18.03
2023-04-24T12:38:46.008Z,17.91
2023-04-24T12:41:15.429Z,17.79
2023-04-24T12:43:56.627Z,17.52
2023-04-24T12:46:24.290Z,18.04
2023-04-24T12:48:51.806Z,18.52
2023-04-24T12:51:19.385Z,18.77
2023-04-24T12:53:46.857Z,18.67
2023-04-24T12:56:14.403Z,17.95
2023-04-24T12:58:41.861Z,17.90
2023-04-24T13:01:09.472Z,17.65
2023-04-24T13:03:37.110Z,17.59
2023-04-24T13:06:04.780Z,17.22
2023-04-24T13:08:32.294Z,17.22
2023-04-24T13:10:59.785Z,16.98
2023-04-24T13:13:27.416Z,17.03
2023-04-24T13:15:54.885Z,16.82
2023-04-24T13:18:23.098Z,16.81
2023-04-24T13:20:51.132Z,17.27
2023-04-24T13:23:18.601Z,17.33
2023-04-24T13:25:46.132Z,17.37
2023-04-24T13:28:13.743Z,17.25
2023-04-24T13:30:41.282Z,17.34
2023-04-24T13:33:08.785Z,17.17
2023-04-24T13:35:36.299Z,17.63
2023-04-24T13:38:07.110Z,17.51
2023-04-24T13:40:34.734Z,17.36
2023-04-24T13:43:02.631Z,17.63
2023-04-24T13:45:30.695Z,17.89
2023-04-24T13:47:58.498Z,18.21
2023-04-24T13:50:26.848Z,18.26
2023-04-24T13:52:55.284Z,18.24
2023-04-24T13:55:22.830Z,17.79
2023-04-24T13:57:50.451Z,17.44
2023-04-24T14:00:19.041Z,17.03
2023-04-24T14:02:46.835Z,16.60
2023-04-24T14:05:16.327Z,16.47
2023-04-24T14:07:43.865Z,16.28
2023-04-24T14:10:11.661Z,16.11
2023-04-24T14:12:39.326Z,15.91
2023-04-24T14:15:07.611Z,16.11
2023-04-24T14:17:35.354Z,16.43
2023-04-24T14:20:03.027Z,16.93
2023-04-24T14:22:30.581Z,17.35
2023-04-24T14:24:59.084Z,17.37
2023-04-24T14:27:27.622Z,17.40
2023-04-24T14:29:55.163Z,17.65
2023-04-24T14:32:22.786Z,17.54
2023-04-24T14:34:50.655Z,17.73
2023-04-24T14:37:18.219Z,17.46
2023-04-24T14:39:56.165Z,17.47
2023-04-24T14:42:29.903Z,16.99
2023-04-24T14:44:57.308Z,17.02
2023-04-24T14:47:24.896Z,16.87
2023-04-24T14:49:52.954Z,17.20
2023-04-24T14:52:21.206Z,17.52
2023-04-24T14:54:48.710Z,17.57
2023-04-24T14:57:16.673Z,17.02
2023-04-24T14:59:44.194Z,16.98
2023-04-24T15:02:16.658Z,17.00
2023-04-24T15:04:45.127Z,16.82
2023-04-24T15:07:12.845Z,16.62
2023-04-24T15:09:40.904Z,16.41
2023-04-24T15:12:09.194Z,16.38
2023-04-24T15:14:36.758Z,16.51
2023-04-24T15:17:04.338Z,16.34
2023-04-24T15:19:32.451Z,16.23
2023-04-24T15:22:00.069Z,16.41
2023-04-24T15:24:27.562Z,16.36
2023-04-24T15:26:57.825Z,16.14
2023-04-24T15:29:27.372Z,16.24
2023-04-24T15:31:54.811Z,16.01
2023-04-24T15:34:22.322Z,15.98
2023-04-24T15:36:49.877Z,15.73
2023-04-24T15:39:17.368Z,15.63
2023-04-24T15:41:44.900Z,15.51
2023-04-24T15:44:12.404Z,15.30
2023-04-24T15:46:39.939Z,15.36
2023-04-24T15:49:07.451Z,15.22
2023-04-24T15:51:34.950Z,14.93
2023-04-24T15:54:02.485Z,14.93
2023-04-24T15:56:31.462Z,14.97
2023-04-24T15:58:59.169Z,15.05
2023-04-24T16:01:26.727Z,14.97
2023-04-24T16:03:54.453Z,14.91
2023-04-24T16:06:22.271Z,14.80
2023-04-24T16:08:50.588Z,14.56
2023-04-24T16:11:18.121Z,14.39
2023-04-24T16:13:45.590Z,14.25
2023-04-24T16:16:13.679Z,14.27
2023-04-24T16:18:41.215Z,14.10
2023-04-24T16:21:09.581Z,14.15
2023-04-24T16:23:37.033Z,14.04
2023-04-24T16:26:04.637Z,13.88
2023-04-24T16:28:32.100Z,13.87
2023-04-24T16:30:59.691Z,13.74
2023-04-24T16:33:27.184Z,13.68
2023-04-24T16:35:55.622Z,13.70
2023-04-24T16:38:25.137Z,13.75
2023-04-24T16:40:52.647Z,13.70
2023-04-24T16:43:20.116Z,13.64
2023-04-24T16:45:47.591Z,13.60
2023-04-24T16:48:15.120Z,13.60
2023-04-24T16:50:42.628Z,13.65
2023-04-24T16:53:10.196Z,13.54
2023-04-24T16:55:37.970Z,13.53
2023-04-24T16:58:05.516Z,13.44
2023-04-24T17:00:33.134Z,13.39
2023-04-24T17:03:01.019Z,13.26
2023-04-24T17:05:28.727Z,13.14
2023-04-24T17:07:56.643Z,13.12
2023-04-24T17:10:24.260Z,12.92
2023-04-24T17:12:51.887Z,12.89
2023-04-24T17:15:19.321Z,12.88
2023-04-24T17:17:46.919Z,12.86
2023-04-24T17:20:22.107Z,12.78
2023-04-24T17:22:51.593Z,12.77
2023-04-24T17:25:19.196Z,12.84
2023-04-24T17:27:46.799Z,12.81
2023-04-24T17:30:14.913Z,12.77
2023-04-24T17:32:42.485Z,12.71
2023-04-24T17:35:10.837Z,12.61
2023-04-24T17:37:38.661Z,12.50
2023-04-24T17:40:07.053Z,12.27
2023-04-24T17:42:37.635Z,12.21
2023-04-24T17:45:06.517Z,12.05
2023-04-24T17:47:34.130Z,11.97
2023-04-24T17:50:01.648Z,11.97
2023-04-24T17:52:29.109Z,12.03
2023-04-24T17:54:56.585Z,11.97
2023-04-24T17:57:24.133Z,11.92
2023-04-24T17:59:51.687Z,11.74
2023-04-24T18:02:19.249Z,11.78
2023-04-24T18:04:47.046Z,11.77
2023-04-24T18:07:14.571Z,11.73
2023-04-24T18:09:42.211Z,11.79
2023-04-24T18:12:10.683Z,11.82
2023-04-24T18:14:38.267Z,11.75
2023-04-24T18:17:06.699Z,11.70
2023-04-24T18:19:34.247Z,11.72
2023-04-24T18:22:01.792Z,11.76
2023-04-24T18:24:29.282Z,11.76
2023-04-24T18:26:57.722Z,11.59
2023-04-24T18:29:25.229Z,11.58
2023-04-24T18:31:53.102Z,11.59
2023-04-24T18:34:20.653Z,11.42
2023-04-24T18:36:48.179Z,11.35
2023-04-24T18:39:15.613Z,11.38
2023-04-24T18:41:43.171Z,11.30
2023-04-24T18:44:11.744Z,11.25
2023-04-24T18:46:41.600Z,11.24
2023-04-24T18:49:09.244Z,11.16
2023-04-24T18:51:50.328Z,11.16
2023-04-24T18:54:20.859Z,11.04
2023-04-24T18:56:48.204Z,11.06
2023-04-24T18:59:16.093Z,11.03
2023-04-24T19:01:43.806Z,10.79
2023-04-24T19:04:11.678Z,10.87
2023-04-24T19:06:39.244Z,10.73
2023-04-24T19:09:06.930Z,10.81
2023-04-24T19:11:34.572Z,10.73
2023-04-24T19:14:04.305Z,10.69
2023-04-24T19:16:32.016Z,10.62
2023-04-24T19:18:59.539Z,10.62
2023-04-24T19:21:28.146Z,10.60
2023-04-24T19:23:57.096Z,10.61
2023-04-24T19:26:25.928Z,10.57
2023-04-24T19:28:53.828Z,10.57
2023-04-24T19:31:21.587Z,10.49
2023-04-24T19:33:49.189Z,10.43
2023-04-24T19:36:19.669Z,10.33
2023-04-24T19:38:47.956Z,10.19
2023-04-24T19:41:16.161Z,10.09
2023-04-24T19:43:43.820Z,10.01
2023-04-24T19:46:11.922Z,9.97
2023-04-24T19:48:39.553Z,9.89
2023-04-24T19:51:07.059Z,9.91
2023-04-24T19:53:34.554Z,9.97
2023-04-24T19:56:01.998Z,9.87
2023-04-24T19:58:32.550Z,9.83
2023-04-24T20:01:01.229Z,9.73
2023-04-24T20:03:33.293Z,9.69
2023-04-24T20:06:01.632Z,9.63
2023-04-24T20:08:29.223Z,9.60
2023-04-24T20:10:58.352Z,9.55
2023-04-24T20:13:31.968Z,9.53
2023-04-24T20:16:00.427Z,9.46
2023-04-24T20:18:28.065Z,9.41
2023-04-24T20:20:58.269Z,9.35
2023-04-24T20:23:26.675Z,9.30
2023-04-24T20:25:58.415Z,9.14
2023-04-24T20:28:30.437Z,9.12
2023-04-24T20:30:59.406Z,9.13
2023-04-24T20:33:28.677Z,9.06
2023-04-24T20:35:56.659Z,9.05
2023-04-24T20:38:24.519Z,9.03
2023-04-24T20:43:28.039Z,9.13
2023-04-24T20:45:58.293Z,9.11
2023-04-24T20:48:26.867Z,9.07
2023-04-24T20:50:54.912Z,9.08
2023-04-24T20:53:22.565Z,9.02
2023-04-24T20:55:50.129Z,9.00
2023-04-24T20:58:21.232Z,8.99
2023-04-24T21:00:48.961Z,8.92
2023-04-24T21:03:16.604Z,8.93
2023-04-24T21:05:44.131Z,8.88
2023-04-24T21:08:12.126Z,8.83
2023-04-24T21:10:39.615Z,8.72
2023-04-24T21:13:07.112Z,8.68
2023-04-24T21:15:35.071Z,8.66
2023-04-24T21:18:03.536Z,8.59
2023-04-24T21:20:31.142Z,8.50
2023-04-24T21:22:58.571Z,8.47
2023-04-24T21:25:26.469Z,8.42
2023-04-24T21:27:53.955Z,8.43
2023-04-24T21:30:22.193Z,8.35
2023-04-24T21:32:49.760Z,8.37
2023-04-24T21:35:17.354Z,8.39
2023-04-24T21:37:45.003Z,8.36
2023-04-24T21:40:12.631Z,8.34
2023-04-24T21:42:40.180Z,8.28
2023-04-24T21:45:08.349Z,8.26
2023-04-24T21:47:36.158Z,8.29
2023-04-24T21:50:04.957Z,8.25
2023-04-24T21:52:32.417Z,8.30
2023-04-24T21:54:59.882Z,8.36
2023-04-24T21:57:28.669Z,8.38
2023-04-24T21:59:56.466Z,8.45
2023-04-24T22:02:24.017Z,8.48
2023-04-24T22:04:53.115Z,8.54
2023-04-24T22:07:20.715Z,8.59
2023-04-24T22:09:48.243Z,8.63
2023-04-24T22:12:16.045Z,8.69
2023-04-24T22:14:44.014Z,8.68
2023-04-24T22:17:11.593Z,8.68
2023-04-24T22:19:40.629Z,8.64
2023-04-24T22:22:08.143Z,8.66
2023-04-24T22:24:36.731Z,8.65
2023-04-24T22:27:50.956Z,8.62
2023-04-24T22:30:18.601Z,8.63
2023-04-24T22:32:46.228Z,8.65
2023-04-24T22:35:13.812Z,8.68
2023-04-24T22:37:41.421Z,8.64
2023-04-24T22:40:10.253Z,8.63
2023-04-24T22:42:37.833Z,8.58
2023-04-24T22:45:08.130Z,8.57
2023-04-24T22:47:35.738Z,8.57
2023-04-24T22:50:03.548Z,8.55
2023-04-24T22:52:31.108Z,8.49
2023-04-24T22:54:58.683Z,8.49
2023-04-24T22:57:26.222Z,8.46
2023-04-24T22:59:54.458Z,8.42
2023-04-24T23:02:23.327Z,8.37
2023-04-24T23:04:50.978Z,8.32
2023-04-24T23:07:18.413Z,8.25
2023-04-24T23:09:46.382Z,8.13
2023-04-24T23:12:13.788Z,8.08
2023-04-24T23:14:41.325Z,7.96
2023-04-24T23:17:08.861Z,7.89
2023-04-24T23:19:36.353Z,7.86
2023-04-24T23:22:03.919Z,7.82
2023-04-24T23:24:31.423Z,7.79
2023-04-24T23:26:58.923Z,7.82
2023-04-24T23:29:26.679Z,7.78
2023-04-24T23:31:54.140Z,7.84
2023-04-24T23:34:21.786Z,7.86
2023-04-24T23:36:50.745Z,7.88
2023-04-24T23:39:18.523Z,7.82
2023-04-24T23:41:46.362Z,7.82
2023-04-24T23:44:13.825Z,7.83
2023-04-24T23:46:41.300Z,7.84
2023-04-24T23:49:09.279Z,7.86
2023-04-24T23:51:36.981Z,7.84
2023-04-24T23:54:04.674Z,7.85
2023-04-24T23:56:32.114Z,7.80
2023-04-24T23:58:59.603Z,7.75
